sensor_id;sensor_type;location;lat;lon;timestamp;temperature;humidity
3842;DHT22;1936;47.074;15.336;2023-07-31T00:01:20;17.20;95.00
3842;DHT22;1936;47.074;15.336;2023-07-31T00:03:24;17.20;95.10
3842;DHT22;1936;47.074;15.336;2023-07-31T00:05:27;17.30;95.00
3842;DHT22;1936;47.074;15.336;2023-07-31T00:07:31;17.20;95.10
3842;DHT22;1936;47.074;15.336;2023-07-31T00:09:36;17.20;95.10
3842;DHT22;1936;47.074;15.336;2023-07-31T00:11:39;17.20;95.00
3842;DHT22;1936;47.074;15.336;2023-07-31T00:13:42;17.30;95.10
3842;DHT22;1936;47.074;15.336;2023-07-31T00:15:47;17.40;95.00
3842;DHT22;1936;47.074;15.336;2023-07-31T00:17:50;17.40;95.00
3842;DHT22;1936;47.074;15.336;2023-07-31T00:19:54;17.30;94.90
3842;DHT22;1936;47.074;15.336;2023-07-31T00:21:56;17.20;94.90
3842;DHT22;1936;47.074;15.336;2023-07-31T00:24:00;17.30;94.90
3842;DHT22;1936;47.074;15.336;2023-07-31T00:26:03;17.30;94.90
3842;DHT22;1936;47.074;15.336;2023-07-31T00:28:07;17.00;95.20
3842;DHT22;1936;47.074;15.336;2023-07-31T00:30:10;17.10;95.70
3842;DHT22;1936;47.074;15.336;2023-07-31T00:32:15;17.20;95.40
3842;DHT22;1936;47.074;15.336;2023-07-31T00:34:19;17.30;94.70
3842;DHT22;1936;47.074;15.336;2023-07-31T00:36:22;17.30;94.60
3842;DHT22;1936;47.074;15.336;2023-07-31T00:38:26;17.30;94.60
3842;DHT22;1936;47.074;15.336;2023-07-31T00:40:29;17.40;94.40
3842;DHT22;1936;47.074;15.336;2023-07-31T00:42:33;17.30;94.50
3842;DHT22;1936;47.074;15.336;2023-07-31T00:44:36;17.30;94.20
3842;DHT22;1936;47.074;15.336;2023-07-31T00:46:40;17.20;94.80
3842;DHT22;1936;47.074;15.336;2023-07-31T00:48:44;17.30;94.20
3842;DHT22;1936;47.074;15.336;2023-07-31T00:50:48;17.20;94.20
3842;DHT22;1936;47.074;15.336;2023-07-31T00:52:52;17.20;94.30
3842;DHT22;1936;47.074;15.336;2023-07-31T00:54:54;17.10;94.40
3842;DHT22;1936;47.074;15.336;2023-07-31T00:56:58;17.10;94.20
3842;DHT22;1936;47.074;15.336;2023-07-31T00:59:03;17.20;94.10
3842;DHT22;1936;47.074;15.336;2023-07-31T01:01:05;17.00;94.30
3842;DHT22;1936;47.074;15.336;2023-07-31T01:03:09;16.80;94.60
3842;DHT22;1936;47.074;15.336;2023-07-31T01:05:14;16.90;94.80
3842;DHT22;1936;47.074;15.336;2023-07-31T01:07:22;16.90;94.60
3842;DHT22;1936;47.074;15.336;2023-07-31T01:09:34;16.80;94.70
3842;DHT22;1936;47.074;15.336;2023-07-31T01:11:46;16.70;95.00
3842;DHT22;1936;47.074;15.336;2023-07-31T01:13:53;16.70;95.10
3842;DHT22;1936;47.074;15.336;2023-07-31T01:15:56;16.70;95.00
3842;DHT22;1936;47.074;15.336;2023-07-31T01:17:59;16.70;95.00
3842;DHT22;1936;47.074;15.336;2023-07-31T01:20:05;16.60;95.10
3842;DHT22;1936;47.074;15.336;2023-07-31T01:22:29;16.60;95.30
3842;DHT22;1936;47.074;15.336;2023-07-31T01:24:40;16.80;94.80
3842;DHT22;1936;47.074;15.336;2023-07-31T01:26:51;16.60;95.20
3842;DHT22;1936;47.074;15.336;2023-07-31T01:29:00;16.70;94.90
3842;DHT22;1936;47.074;15.336;2023-07-31T01:31:07;16.70;94.70
3842;DHT22;1936;47.074;15.336;2023-07-31T01:33:14;16.70;94.80
3842;DHT22;1936;47.074;15.336;2023-07-31T01:35:18;16.70;94.90
3842;DHT22;1936;47.074;15.336;2023-07-31T01:37:21;16.50;95.70
3842;DHT22;1936;47.074;15.336;2023-07-31T01:39:30;16.60;95.60
3842;DHT22;1936;47.074;15.336;2023-07-31T01:41:34;16.60;95.20
3842;DHT22;1936;47.074;15.336;2023-07-31T01:43:38;16.50;95.20
3842;DHT22;1936;47.074;15.336;2023-07-31T01:45:42;16.50;95.40
3842;DHT22;1936;47.074;15.336;2023-07-31T01:47:45;16.60;95.30
3842;DHT22;1936;47.074;15.336;2023-07-31T01:49:49;16.50;95.40
3842;DHT22;1936;47.074;15.336;2023-07-31T01:51:52;16.50;95.30
3842;DHT22;1936;47.074;15.336;2023-07-31T01:53:55;16.50;95.50
3842;DHT22;1936;47.074;15.336;2023-07-31T01:55:59;16.50;95.30
3842;DHT22;1936;47.074;15.336;2023-07-31T01:58:01;16.50;95.20
3842;DHT22;1936;47.074;15.336;2023-07-31T02:00:08;16.50;95.20
3842;DHT22;1936;47.074;15.336;2023-07-31T02:02:12;16.30;95.70
3842;DHT22;1936;47.074;15.336;2023-07-31T02:04:16;16.40;95.60
3842;DHT22;1936;47.074;15.336;2023-07-31T02:06:20;16.10;96.10
3842;DHT22;1936;47.074;15.336;2023-07-31T02:08:24;16.10;96.50
3842;DHT22;1936;47.074;15.336;2023-07-31T02:10:28;16.10;96.60
3842;DHT22;1936;47.074;15.336;2023-07-31T02:12:31;16.10;96.40
3842;DHT22;1936;47.074;15.336;2023-07-31T02:14:35;16.10;96.50
3842;DHT22;1936;47.074;15.336;2023-07-31T02:16:40;16.30;96.30
3842;DHT22;1936;47.074;15.336;2023-07-31T02:18:45;16.30;96.00
3842;DHT22;1936;47.074;15.336;2023-07-31T02:20:49;16.40;95.70
3842;DHT22;1936;47.074;15.336;2023-07-31T02:22:53;16.40;96.00
3842;DHT22;1936;47.074;15.336;2023-07-31T02:24:56;16.30;95.90
3842;DHT22;1936;47.074;15.336;2023-07-31T02:27:00;16.30;96.00
3842;DHT22;1936;47.074;15.336;2023-07-31T02:29:03;16.30;95.80
3842;DHT22;1936;47.074;15.336;2023-07-31T02:31:06;16.40;95.60
3842;DHT22;1936;47.074;15.336;2023-07-31T02:33:10;16.50;95.20
3842;DHT22;1936;47.074;15.336;2023-07-31T02:35:14;16.50;95.00
3842;DHT22;1936;47.074;15.336;2023-07-31T02:37:17;16.40;95.00
3842;DHT22;1936;47.074;15.336;2023-07-31T02:39:21;16.40;95.40
3842;DHT22;1936;47.074;15.336;2023-07-31T02:41:24;16.40;95.10
3842;DHT22;1936;47.074;15.336;2023-07-31T02:43:27;16.40;95.20
3842;DHT22;1936;47.074;15.336;2023-07-31T02:45:30;16.10;95.50
3842;DHT22;1936;47.074;15.336;2023-07-31T02:47:32;16.20;95.70
3842;DHT22;1936;47.074;15.336;2023-07-31T02:49:37;16.30;95.60
3842;DHT22;1936;47.074;15.336;2023-07-31T02:51:40;16.30;95.30
3842;DHT22;1936;47.074;15.336;2023-07-31T02:53:44;16.30;95.10
3842;DHT22;1936;47.074;15.336;2023-07-31T02:55:47;16.20;95.60
3842;DHT22;1936;47.074;15.336;2023-07-31T02:57:51;16.10;96.10
3842;DHT22;1936;47.074;15.336;2023-07-31T02:59:54;16.30;95.90
3842;DHT22;1936;47.074;15.336;2023-07-31T03:01:57;16.40;95.40
3842;DHT22;1936;47.074;15.336;2023-07-31T03:04:00;16.40;95.40
3842;DHT22;1936;47.074;15.336;2023-07-31T03:06:05;16.50;95.10
3842;DHT22;1936;47.074;15.336;2023-07-31T03:08:08;16.50;95.20
3842;DHT22;1936;47.074;15.336;2023-07-31T03:10:12;16.50;95.20
3842;DHT22;1936;47.074;15.336;2023-07-31T03:12:15;16.40;95.50
3842;DHT22;1936;47.074;15.336;2023-07-31T03:14:17;16.40;95.50
3842;DHT22;1936;47.074;15.336;2023-07-31T03:16:21;16.20;95.70
3842;DHT22;1936;47.074;15.336;2023-07-31T03:18:24;16.30;95.70
3842;DHT22;1936;47.074;15.336;2023-07-31T03:20:28;16.30;95.30
3842;DHT22;1936;47.074;15.336;2023-07-31T03:22:32;16.30;95.40
3842;DHT22;1936;47.074;15.336;2023-07-31T03:24:37;16.30;95.30
3842;DHT22;1936;47.074;15.336;2023-07-31T03:26:40;16.30;95.10
3842;DHT22;1936;47.074;15.336;2023-07-31T03:28:44;16.30;95.00
3842;DHT22;1936;47.074;15.336;2023-07-31T03:30:47;16.20;95.10
3842;DHT22;1936;47.074;15.336;2023-07-31T03:32:51;16.20;94.90
3842;DHT22;1936;47.074;15.336;2023-07-31T03:34:54;16.30;94.70
3842;DHT22;1936;47.074;15.336;2023-07-31T03:36:58;16.20;94.60
3842;DHT22;1936;47.074;15.336;2023-07-31T03:39:03;16.20;94.70
3842;DHT22;1936;47.074;15.336;2023-07-31T03:41:06;16.20;94.80
3842;DHT22;1936;47.074;15.336;2023-07-31T03:43:10;16.10;95.00
3842;DHT22;1936;47.074;15.336;2023-07-31T03:45:14;16.00;95.00
3842;DHT22;1936;47.074;15.336;2023-07-31T03:47:17;15.90;95.60
3842;DHT22;1936;47.074;15.336;2023-07-31T03:49:21;15.90;95.30
3842;DHT22;1936;47.074;15.336;2023-07-31T03:51:24;15.70;95.60
3842;DHT22;1936;47.074;15.336;2023-07-31T03:53:28;15.70;95.90
3842;DHT22;1936;47.074;15.336;2023-07-31T03:55:32;15.70;95.80
3842;DHT22;1936;47.074;15.336;2023-07-31T03:57:36;15.80;95.70
3842;DHT22;1936;47.074;15.336;2023-07-31T03:59:39;15.70;95.80
3842;DHT22;1936;47.074;15.336;2023-07-31T04:01:43;15.80;95.70
3842;DHT22;1936;47.074;15.336;2023-07-31T04:03:46;15.80;95.60
3842;DHT22;1936;47.074;15.336;2023-07-31T04:05:50;15.80;95.50
3842;DHT22;1936;47.074;15.336;2023-07-31T04:07:53;15.80;95.60
3842;DHT22;1936;47.074;15.336;2023-07-31T04:09:57;16.00;95.60
3842;DHT22;1936;47.074;15.336;2023-07-31T04:12:06;16.00;95.40
3842;DHT22;1936;47.074;15.336;2023-07-31T04:14:09;15.90;95.70
3842;DHT22;1936;47.074;15.336;2023-07-31T04:16:13;16.00;95.50
3842;DHT22;1936;47.074;15.336;2023-07-31T04:18:15;16.00;95.90
3842;DHT22;1936;47.074;15.336;2023-07-31T04:20:18;16.10;95.50
3842;DHT22;1936;47.074;15.336;2023-07-31T04:22:22;16.10;95.50
3842;DHT22;1936;47.074;15.336;2023-07-31T04:24:25;16.10;95.40
3842;DHT22;1936;47.074;15.336;2023-07-31T04:26:28;16.20;95.30
3842;DHT22;1936;47.074;15.336;2023-07-31T04:28:33;16.30;95.00
3842;DHT22;1936;47.074;15.336;2023-07-31T04:30:36;16.30;94.90
3842;DHT22;1936;47.074;15.336;2023-07-31T04:32:40;16.20;95.10
3842;DHT22;1936;47.074;15.336;2023-07-31T04:34:43;16.30;94.90
3842;DHT22;1936;47.074;15.336;2023-07-31T04:36:46;16.10;95.10
3842;DHT22;1936;47.074;15.336;2023-07-31T04:38:49;16.30;94.90
3842;DHT22;1936;47.074;15.336;2023-07-31T04:40:53;16.30;94.80
3842;DHT22;1936;47.074;15.336;2023-07-31T04:42:56;16.10;95.70
3842;DHT22;1936;47.074;15.336;2023-07-31T04:45:01;16.20;96.00
3842;DHT22;1936;47.074;15.336;2023-07-31T04:47:03;16.20;95.50
3842;DHT22;1936;47.074;15.336;2023-07-31T04:49:07;16.30;95.10
3842;DHT22;1936;47.074;15.336;2023-07-31T04:51:10;16.30;95.30
3842;DHT22;1936;47.074;15.336;2023-07-31T04:53:14;16.40;95.50
3842;DHT22;1936;47.074;15.336;2023-07-31T04:55:16;16.60;95.30
3842;DHT22;1936;47.074;15.336;2023-07-31T04:57:19;16.80;95.00
3842;DHT22;1936;47.074;15.336;2023-07-31T04:59:22;16.90;94.90
3842;DHT22;1936;47.074;15.336;2023-07-31T05:01:27;17.00;94.60
3842;DHT22;1936;47.074;15.336;2023-07-31T05:03:30;16.90;95.30
3842;DHT22;1936;47.074;15.336;2023-07-31T05:05:34;17.00;94.90
3842;DHT22;1936;47.074;15.336;2023-07-31T05:07:38;17.00;94.50
3842;DHT22;1936;47.074;15.336;2023-07-31T05:09:41;17.00;94.50
3842;DHT22;1936;47.074;15.336;2023-07-31T05:11:44;17.00;95.10
3842;DHT22;1936;47.074;15.336;2023-07-31T05:13:48;17.20;95.00
3842;DHT22;1936;47.074;15.336;2023-07-31T05:15:51;17.50;94.10
3842;DHT22;1936;47.074;15.336;2023-07-31T05:17:56;17.70;93.80
3842;DHT22;1936;47.074;15.336;2023-07-31T05:20:00;17.70;93.80
3842;DHT22;1936;47.074;15.336;2023-07-31T05:22:04;17.80;93.90
3842;DHT22;1936;47.074;15.336;2023-07-31T05:24:07;18.00;93.50
3842;DHT22;1936;47.074;15.336;2023-07-31T05:26:10;18.10;93.40
3842;DHT22;1936;47.074;15.336;2023-07-31T05:28:14;18.30;93.20
3842;DHT22;1936;47.074;15.336;2023-07-31T05:30:17;18.50;93.10
3842;DHT22;1936;47.074;15.336;2023-07-31T05:32:21;18.40;93.10
3842;DHT22;1936;47.074;15.336;2023-07-31T05:34:26;18.60;93.00
3842;DHT22;1936;47.074;15.336;2023-07-31T05:36:29;18.70;92.90
3842;DHT22;1936;47.074;15.336;2023-07-31T05:38:33;18.60;92.70
3842;DHT22;1936;47.074;15.336;2023-07-31T05:40:36;18.30;92.80
3842;DHT22;1936;47.074;15.336;2023-07-31T05:42:40;18.30;93.10
3842;DHT22;1936;47.074;15.336;2023-07-31T05:44:44;18.50;93.50
3842;DHT22;1936;47.074;15.336;2023-07-31T05:46:47;19.00;93.20
3842;DHT22;1936;47.074;15.336;2023-07-31T05:48:51;19.30;91.90
3842;DHT22;1936;47.074;15.336;2023-07-31T05:50:55;19.80;90.60
3842;DHT22;1936;47.074;15.336;2023-07-31T05:52:58;20.10;90.50
3842;DHT22;1936;47.074;15.336;2023-07-31T05:55:02;20.30;90.20
3842;DHT22;1936;47.074;15.336;2023-07-31T05:57:06;20.50;90.20
3842;DHT22;1936;47.074;15.336;2023-07-31T05:59:11;20.80;87.60
3842;DHT22;1936;47.074;15.336;2023-07-31T06:01:15;21.10;85.90
3842;DHT22;1936;47.074;15.336;2023-07-31T06:03:19;21.70;86.20
3842;DHT22;1936;47.074;15.336;2023-07-31T06:05:23;22.50;83.90
3842;DHT22;1936;47.074;15.336;2023-07-31T06:07:28;23.10;82.30
3842;DHT22;1936;47.074;15.336;2023-07-31T06:09:31;22.60;79.30
3842;DHT22;1936;47.074;15.336;2023-07-31T06:11:34;22.70;80.80
3842;DHT22;1936;47.074;15.336;2023-07-31T06:13:38;23.30;78.70
3842;DHT22;1936;47.074;15.336;2023-07-31T06:15:45;23.70;74.90
3842;DHT22;1936;47.074;15.336;2023-07-31T06:17:48;23.90;73.90
3842;DHT22;1936;47.074;15.336;2023-07-31T06:19:53;24.20;73.30
3842;DHT22;1936;47.074;15.336;2023-07-31T06:21:57;25.50;70.50
3842;DHT22;1936;47.074;15.336;2023-07-31T06:24:02;26.50;67.50
3842;DHT22;1936;47.074;15.336;2023-07-31T06:26:05;27.40;62.40
3842;DHT22;1936;47.074;15.336;2023-07-31T06:28:09;29.40;60.00
3842;DHT22;1936;47.074;15.336;2023-07-31T06:30:12;30.70;55.90
3842;DHT22;1936;47.074;15.336;2023-07-31T06:32:16;31.90;53.50
3842;DHT22;1936;47.074;15.336;2023-07-31T06:34:19;31.40;48.60
3842;DHT22;1936;47.074;15.336;2023-07-31T06:36:23;31.20;48.50
3842;DHT22;1936;47.074;15.336;2023-07-31T06:38:26;32.20;47.90
3842;DHT22;1936;47.074;15.336;2023-07-31T06:40:32;33.00;47.40
3842;DHT22;1936;47.074;15.336;2023-07-31T06:42:35;33.00;45.00
3842;DHT22;1936;47.074;15.336;2023-07-31T06:44:39;32.40;42.40
3842;DHT22;1936;47.074;15.336;2023-07-31T06:46:42;31.40;46.30
3842;DHT22;1936;47.074;15.336;2023-07-31T06:48:46;30.80;47.00
3842;DHT22;1936;47.074;15.336;2023-07-31T06:50:49;30.60;51.20
3842;DHT22;1936;47.074;15.336;2023-07-31T06:52:53;31.60;49.80
3842;DHT22;1936;47.074;15.336;2023-07-31T06:55:02;30.90;47.00
3842;DHT22;1936;47.074;15.336;2023-07-31T06:57:08;30.10;48.70
3842;DHT22;1936;47.074;15.336;2023-07-31T06:59:11;29.60;50.60
3842;DHT22;1936;47.074;15.336;2023-07-31T07:01:15;31.00;51.10
3842;DHT22;1936;47.074;15.336;2023-07-31T07:03:19;32.00;47.10
3842;DHT22;1936;47.074;15.336;2023-07-31T07:05:22;32.50;45.00
3842;DHT22;1936;47.074;15.336;2023-07-31T07:07:26;33.50;44.00
3842;DHT22;1936;47.074;15.336;2023-07-31T07:09:29;34.50;41.10
3842;DHT22;1936;47.074;15.336;2023-07-31T07:11:33;34.60;39.90
3842;DHT22;1936;47.074;15.336;2023-07-31T07:13:38;35.30;40.90
3842;DHT22;1936;47.074;15.336;2023-07-31T07:15:41;34.90;40.10
3842;DHT22;1936;47.074;15.336;2023-07-31T07:17:45;35.30;40.60
3842;DHT22;1936;47.074;15.336;2023-07-31T07:19:48;34.70;38.10
3842;DHT22;1936;47.074;15.336;2023-07-31T07:21:52;34.50;39.50
3842;DHT22;1936;47.074;15.336;2023-07-31T07:23:55;35.00;39.00
3842;DHT22;1936;47.074;15.336;2023-07-31T07:25:59;35.90;36.80
3842;DHT22;1936;47.074;15.336;2023-07-31T07:28:02;35.80;36.90
3842;DHT22;1936;47.074;15.336;2023-07-31T07:30:08;35.90;35.40
3842;DHT22;1936;47.074;15.336;2023-07-31T07:32:12;35.90;37.10
3842;DHT22;1936;47.074;15.336;2023-07-31T07:34:16;35.50;37.80
3842;DHT22;1936;47.074;15.336;2023-07-31T07:36:19;35.50;39.10
3842;DHT22;1936;47.074;15.336;2023-07-31T07:38:23;34.60;38.20
3842;DHT22;1936;47.074;15.336;2023-07-31T07:40:26;34.90;40.20
3842;DHT22;1936;47.074;15.336;2023-07-31T07:42:30;35.10;38.20
3842;DHT22;1936;47.074;15.336;2023-07-31T07:44:35;36.40;36.90
3842;DHT22;1936;47.074;15.336;2023-07-31T07:46:39;36.90;33.80
3842;DHT22;1936;47.074;15.336;2023-07-31T07:48:44;36.50;36.00
3842;DHT22;1936;47.074;15.336;2023-07-31T07:50:49;37.60;34.60
3842;DHT22;1936;47.074;15.336;2023-07-31T07:52:52;37.10;34.60
3842;DHT22;1936;47.074;15.336;2023-07-31T07:54:56;36.90;34.30
3842;DHT22;1936;47.074;15.336;2023-07-31T07:57:00;36.50;33.20
3842;DHT22;1936;47.074;15.336;2023-07-31T07:59:03;36.50;38.60
3842;DHT22;1936;47.074;15.336;2023-07-31T08:01:07;37.70;34.10
3842;DHT22;1936;47.074;15.336;2023-07-31T08:03:12;38.30;34.40
3842;DHT22;1936;47.074;15.336;2023-07-31T08:05:16;38.20;32.20
3842;DHT22;1936;47.074;15.336;2023-07-31T08:07:20;38.10;34.80
3842;DHT22;1936;47.074;15.336;2023-07-31T08:09:24;38.20;34.60
3842;DHT22;1936;47.074;15.336;2023-07-31T08:11:28;38.20;31.80
3842;DHT22;1936;47.074;15.336;2023-07-31T08:13:31;38.70;31.40
3842;DHT22;1936;47.074;15.336;2023-07-31T08:15:34;38.50;32.70
3842;DHT22;1936;47.074;15.336;2023-07-31T08:17:38;38.50;30.10
3842;DHT22;1936;47.074;15.336;2023-07-31T08:19:43;38.60;31.80
3842;DHT22;1936;47.074;15.336;2023-07-31T08:21:48;39.80;32.60
3842;DHT22;1936;47.074;15.336;2023-07-31T08:23:52;40.00;31.90
3842;DHT22;1936;47.074;15.336;2023-07-31T08:25:55;39.60;28.40
3842;DHT22;1936;47.074;15.336;2023-07-31T08:27:59;38.90;29.10
3842;DHT22;1936;47.074;15.336;2023-07-31T08:30:02;40.20;28.90
3842;DHT22;1936;47.074;15.336;2023-07-31T08:32:06;39.60;28.50
3842;DHT22;1936;47.074;15.336;2023-07-31T08:34:10;38.90;29.40
3842;DHT22;1936;47.074;15.336;2023-07-31T08:36:15;38.40;30.00
3842;DHT22;1936;47.074;15.336;2023-07-31T08:38:19;39.10;31.10
3842;DHT22;1936;47.074;15.336;2023-07-31T08:40:23;39.00;31.60
3842;DHT22;1936;47.074;15.336;2023-07-31T08:42:26;39.20;28.60
3842;DHT22;1936;47.074;15.336;2023-07-31T08:44:33;39.00;30.20
3842;DHT22;1936;47.074;15.336;2023-07-31T08:46:37;37.50;30.00
3842;DHT22;1936;47.074;15.336;2023-07-31T08:48:42;36.40;29.70
3842;DHT22;1936;47.074;15.336;2023-07-31T08:50:47;35.90;31.20
3842;DHT22;1936;47.074;15.336;2023-07-31T08:52:52;35.10;35.60
3842;DHT22;1936;47.074;15.336;2023-07-31T08:54:59;34.30;34.70
3842;DHT22;1936;47.074;15.336;2023-07-31T08:57:04;33.90;35.10
3842;DHT22;1936;47.074;15.336;2023-07-31T08:59:08;33.90;36.20
3842;DHT22;1936;47.074;15.336;2023-07-31T09:01:13;33.10;37.50
3842;DHT22;1936;47.074;15.336;2023-07-31T09:03:18;33.20;39.50
3842;DHT22;1936;47.074;15.336;2023-07-31T09:05:22;34.50;38.80
3842;DHT22;1936;47.074;15.336;2023-07-31T09:07:26;34.70;37.20
3842;DHT22;1936;47.074;15.336;2023-07-31T09:09:32;34.90;39.90
3842;DHT22;1936;47.074;15.336;2023-07-31T09:11:35;36.20;37.30
3842;DHT22;1936;47.074;15.336;2023-07-31T09:13:40;36.80;36.60
3842;DHT22;1936;47.074;15.336;2023-07-31T09:15:45;37.40;32.40
3842;DHT22;1936;47.074;15.336;2023-07-31T09:17:59;38.50;34.70
3842;DHT22;1936;47.074;15.336;2023-07-31T09:20:13;37.30;31.40
3842;DHT22;1936;47.074;15.336;2023-07-31T09:22:17;38.40;32.20
3842;DHT22;1936;47.074;15.336;2023-07-31T09:24:39;37.50;32.30
3842;DHT22;1936;47.074;15.336;2023-07-31T09:26:43;36.50;33.40
3842;DHT22;1936;47.074;15.336;2023-07-31T09:28:46;35.90;40.90
3842;DHT22;1936;47.074;15.336;2023-07-31T09:30:51;35.50;35.70
3842;DHT22;1936;47.074;15.336;2023-07-31T09:33:01;35.50;35.00
3842;DHT22;1936;47.074;15.336;2023-07-31T09:35:14;35.80;38.10
3842;DHT22;1936;47.074;15.336;2023-07-31T09:37:21;35.20;37.70
3842;DHT22;1936;47.074;15.336;2023-07-31T09:39:25;36.10;36.90
3842;DHT22;1936;47.074;15.336;2023-07-31T09:41:30;35.70;38.20
3842;DHT22;1936;47.074;15.336;2023-07-31T09:43:33;36.00;43.10
3842;DHT22;1936;47.074;15.336;2023-07-31T09:45:38;37.20;38.50
3842;DHT22;1936;47.074;15.336;2023-07-31T09:47:46;36.30;35.00
3842;DHT22;1936;47.074;15.336;2023-07-31T09:49:50;36.40;36.60
3842;DHT22;1936;47.074;15.336;2023-07-31T09:51:54;37.10;36.00
3842;DHT22;1936;47.074;15.336;2023-07-31T09:53:57;37.80;34.10
3842;DHT22;1936;47.074;15.336;2023-07-31T09:56:01;38.20;35.10
3842;DHT22;1936;47.074;15.336;2023-07-31T09:58:09;38.10;36.70
3842;DHT22;1936;47.074;15.336;2023-07-31T10:00:14;37.00;33.90
3842;DHT22;1936;47.074;15.336;2023-07-31T10:02:21;36.70;36.10
3842;DHT22;1936;47.074;15.336;2023-07-31T10:04:27;38.20;34.50
3842;DHT22;1936;47.074;15.336;2023-07-31T10:06:32;37.60;35.00
3842;DHT22;1936;47.074;15.336;2023-07-31T10:08:36;37.40;36.60
3842;DHT22;1936;47.074;15.336;2023-07-31T10:10:43;37.20;37.60
3842;DHT22;1936;47.074;15.336;2023-07-31T10:12:48;37.70;34.90
3842;DHT22;1936;47.074;15.336;2023-07-31T10:14:54;38.10;35.80
3842;DHT22;1936;47.074;15.336;2023-07-31T10:16:58;39.10;33.30
3842;DHT22;1936;47.074;15.336;2023-07-31T10:19:03;39.90;34.20
3842;DHT22;1936;47.074;15.336;2023-07-31T10:21:06;40.20;35.00
3842;DHT22;1936;47.074;15.336;2023-07-31T10:23:10;39.80;34.00
3842;DHT22;1936;47.074;15.336;2023-07-31T10:25:15;39.30;32.60
3842;DHT22;1936;47.074;15.336;2023-07-31T10:27:19;39.70;35.00
3842;DHT22;1936;47.074;15.336;2023-07-31T10:29:23;39.30;30.60
3842;DHT22;1936;47.074;15.336;2023-07-31T10:31:29;38.80;33.40
3842;DHT22;1936;47.074;15.336;2023-07-31T10:33:33;39.10;34.00
3842;DHT22;1936;47.074;15.336;2023-07-31T10:35:36;38.00;36.70
3842;DHT22;1936;47.074;15.336;2023-07-31T10:37:41;37.50;36.30
3842;DHT22;1936;47.074;15.336;2023-07-31T10:39:55;37.50;38.10
3842;DHT22;1936;47.074;15.336;2023-07-31T10:41:59;37.00;36.90
3842;DHT22;1936;47.074;15.336;2023-07-31T10:44:03;37.00;37.10
3842;DHT22;1936;47.074;15.336;2023-07-31T10:46:08;36.10;37.20
3842;DHT22;1936;47.074;15.336;2023-07-31T10:48:15;36.60;37.30
3842;DHT22;1936;47.074;15.336;2023-07-31T10:50:19;35.30;40.00
3842;DHT22;1936;47.074;15.336;2023-07-31T10:52:34;34.40;40.20
3842;DHT22;1936;47.074;15.336;2023-07-31T10:54:38;34.70;43.00
3842;DHT22;1936;47.074;15.336;2023-07-31T10:56:45;35.10;41.50
3842;DHT22;1936;47.074;15.336;2023-07-31T10:59:00;34.70;40.00
3842;DHT22;1936;47.074;15.336;2023-07-31T11:01:06;35.00;40.90
3842;DHT22;1936;47.074;15.336;2023-07-31T11:03:13;35.40;43.00
3842;DHT22;1936;47.074;15.336;2023-07-31T11:05:19;36.10;40.00
3842;DHT22;1936;47.074;15.336;2023-07-31T11:07:24;34.90;38.70
3842;DHT22;1936;47.074;15.336;2023-07-31T11:09:31;34.70;43.00
3842;DHT22;1936;47.074;15.336;2023-07-31T11:11:36;33.10;41.10
3842;DHT22;1936;47.074;15.336;2023-07-31T11:13:44;33.40;45.00
3842;DHT22;1936;47.074;15.336;2023-07-31T11:15:47;33.70;45.90
3842;DHT22;1936;47.074;15.336;2023-07-31T11:17:51;34.10;46.20
3842;DHT22;1936;47.074;15.336;2023-07-31T11:19:54;33.90;42.00
3842;DHT22;1936;47.074;15.336;2023-07-31T11:21:59;33.40;44.40
3842;DHT22;1936;47.074;15.336;2023-07-31T11:24:03;33.40;43.40
3842;DHT22;1936;47.074;15.336;2023-07-31T11:26:07;33.40;49.80
3842;DHT22;1936;47.074;15.336;2023-07-31T11:28:12;34.80;43.80
3842;DHT22;1936;47.074;15.336;2023-07-31T11:30:18;35.80;43.70
3842;DHT22;1936;47.074;15.336;2023-07-31T11:32:23;35.50;38.30
3842;DHT22;1936;47.074;15.336;2023-07-31T11:34:27;35.80;38.10
3842;DHT22;1936;47.074;15.336;2023-07-31T11:36:31;36.20;41.50
3842;DHT22;1936;47.074;15.336;2023-07-31T11:38:36;35.80;41.00
3842;DHT22;1936;47.074;15.336;2023-07-31T11:40:43;36.20;40.80
3842;DHT22;1936;47.074;15.336;2023-07-31T11:42:47;35.60;41.90
3842;DHT22;1936;47.074;15.336;2023-07-31T11:44:50;34.40;42.10
3842;DHT22;1936;47.074;15.336;2023-07-31T11:46:56;34.80;39.70
3842;DHT22;1936;47.074;15.336;2023-07-31T11:49:00;34.80;42.40
3842;DHT22;1936;47.074;15.336;2023-07-31T11:51:05;34.60;40.20
3842;DHT22;1936;47.074;15.336;2023-07-31T11:53:09;35.20;40.40
3842;DHT22;1936;47.074;15.336;2023-07-31T11:55:13;34.00;42.70
3842;DHT22;1936;47.074;15.336;2023-07-31T11:57:18;33.50;45.10
3842;DHT22;1936;47.074;15.336;2023-07-31T11:59:22;33.70;43.60
3842;DHT22;1936;47.074;15.336;2023-07-31T12:01:27;33.10;46.20
3842;DHT22;1936;47.074;15.336;2023-07-31T12:03:31;32.50;45.40
3842;DHT22;1936;47.074;15.336;2023-07-31T12:05:37;32.60;45.40
3842;DHT22;1936;47.074;15.336;2023-07-31T12:07:49;32.50;47.60
3842;DHT22;1936;47.074;15.336;2023-07-31T12:09:53;32.00;46.10
3842;DHT22;1936;47.074;15.336;2023-07-31T12:11:57;31.70;47.40
3842;DHT22;1936;47.074;15.336;2023-07-31T12:14:04;31.70;49.00
3842;DHT22;1936;47.074;15.336;2023-07-31T12:16:07;31.40;48.70
3842;DHT22;1936;47.074;15.336;2023-07-31T12:18:12;31.20;49.20
3842;DHT22;1936;47.074;15.336;2023-07-31T12:20:16;31.40;52.60
3842;DHT22;1936;47.074;15.336;2023-07-31T12:22:20;32.10;47.30
3842;DHT22;1936;47.074;15.336;2023-07-31T12:24:24;32.10;49.30
3842;DHT22;1936;47.074;15.336;2023-07-31T12:26:34;32.30;47.90
3842;DHT22;1936;47.074;15.336;2023-07-31T12:28:43;31.70;47.40
3842;DHT22;1936;47.074;15.336;2023-07-31T12:30:46;31.60;48.40
3842;DHT22;1936;47.074;15.336;2023-07-31T12:32:50;31.30;48.30
3842;DHT22;1936;47.074;15.336;2023-07-31T12:34:54;31.10;47.00
3842;DHT22;1936;47.074;15.336;2023-07-31T12:36:57;30.50;48.80
3842;DHT22;1936;47.074;15.336;2023-07-31T12:39:01;30.00;50.80
3842;DHT22;1936;47.074;15.336;2023-07-31T12:41:06;30.80;50.20
3842;DHT22;1936;47.074;15.336;2023-07-31T12:43:10;30.80;51.40
3842;DHT22;1936;47.074;15.336;2023-07-31T12:45:15;31.10;51.60
3842;DHT22;1936;47.074;15.336;2023-07-31T12:47:18;31.10;51.30
3842;DHT22;1936;47.074;15.336;2023-07-31T12:49:22;30.80;49.90
3842;DHT22;1936;47.074;15.336;2023-07-31T12:51:25;30.30;51.00
3842;DHT22;1936;47.074;15.336;2023-07-31T12:53:29;30.20;50.70
3842;DHT22;1936;47.074;15.336;2023-07-31T12:55:33;30.10;52.00
3842;DHT22;1936;47.074;15.336;2023-07-31T12:57:39;30.40;54.30
3842;DHT22;1936;47.074;15.336;2023-07-31T12:59:44;30.70;51.90
3842;DHT22;1936;47.074;15.336;2023-07-31T13:01:49;30.90;50.60
3842;DHT22;1936;47.074;15.336;2023-07-31T13:03:52;30.70;51.20
3842;DHT22;1936;47.074;15.336;2023-07-31T13:05:56;30.60;49.30
3842;DHT22;1936;47.074;15.336;2023-07-31T13:07:59;30.80;52.60
3842;DHT22;1936;47.074;15.336;2023-07-31T13:10:03;30.80;50.70
3842;DHT22;1936;47.074;15.336;2023-07-31T13:12:08;30.60;49.60
3842;DHT22;1936;47.074;15.336;2023-07-31T13:14:11;30.50;47.50
3842;DHT22;1936;47.074;15.336;2023-07-31T13:16:15;30.40;49.50
3842;DHT22;1936;47.074;15.336;2023-07-31T13:18:19;30.20;51.30